Latest Coastal Weather Observations for South Johnstone

IDQ60701

Issued at 6:12 pm EST Tuesday 1 September 2015 (issued every 10 minutes, with the page automatically refreshed every 10 minutes)

About coastal observations | Map of coastal stations | Coastal observations for QLD | Marine services | Other Formats
Station Details ID: 032037 Name: SOUTH JOHNSTONE EXP STN Lat: -17.61 Lon: 146.00 Height: 18.3 m
Data from the previous 72 hours. | See also: Recent months at South Johnstone
Date/Time
EST
Temp

°C
Wind Pressure Rain
since 9am
mm
Weather Cloud Vis
km
Sea
Height
m
Swell
Dir
 
Speed
knots
Gust
knots
hPa Trend Height
m
Period
s
Dir
01/06:00pm 24.1 NE 6 8 1013.9 - 0.0 - - - - - - -
01/05:30pm 24.6 NE 8 12 1013.8 - 0.0 - - - - - - -
01/05:00pm 25.0 NNE 8 12 1013.6 - 0.0 - - - - - - -
01/04:30pm 25.4 ENE 9 14 1013.4 - 0.0 - - - - - - -
01/04:00pm 26.1 ENE 10 14 1013.3 - 0.0 - - - - - - -
01/03:30pm 26.6 NE 8 14 1013.3 - 0.0 - - - - - - -
01/03:00pm 26.2 NE 9 13 1013.6 - 0.0 - - - - - - -
01/02:30pm 27.0 NE 8 13 1013.8 - 0.0 - - - - - - -
01/02:00pm 26.8 NE 8 14 1014.2 - 0.0 - - - - - - -
01/01:30pm 27.2 ENE 9 13 1014.6 - 0.0 - - - - - - -
01/01:00pm 27.4 ENE 8 13 1015.0 - 0.0 - - - - - - -
01/12:30pm 27.1 NE 7 13 1015.5 - 0.0 - - - - - - -
01/12:00pm 27.7 NE 7 12 1015.9 - 0.0 - - - - - - -
01/11:30am 27.7 NE 7 12 1016.6 - 0.0 - - - - - - -
01/11:00am 27.4 NNE 2 7 1017.1 - 0.0 - - - - - - -
01/10:30am 27.5 NE 4 8 1017.5 - 0.0 - - - - - - -
01/10:00am 27.1 NNE 1 5 1017.9 - 0.0 - - - - - - -
01/09:30am 25.9 SW 1 6 1017.9 - 0.0 - - - - - - -
01/09:00am 24.4 WSW 3 5 1017.7 - 0.0 - - - - - - -
01/08:30am 23.4 CALM 0 0 1017.6 - 0.0 - - - - - - -
01/08:00am 21.7 WNW 1 3 1017.4 - 0.0 - - - - - - -
01/07:30am 20.3 CALM 0 0 1017.0 - 0.0 - - - - - - -
01/07:00am 19.8 CALM 0 0 1016.8 - 0.0 - - - - - - -
01/06:30am 18.8 CALM 0 0 1016.3 - 0.0 - - - - - - -
01/06:00am 18.6 CALM 0 0 1015.8 - 0.0 - - - - - - -
01/05:30am 18.9 W 2 4 1015.6 - 0.0 - - - - - - -
01/05:00am 18.4 WSW 6 7 1015.5 - 0.0 - - - - - - -
01/04:30am 18.3 W 1 4 1015.2 - 0.0 - - - - - - -
01/04:00am 18.3 W 4 6 1015.1 - 0.0 - - - - - - -
01/03:30am 18.0 CALM 0 3 1015.1 - 0.0 - - - - - - -
01/03:00am 18.2 W 1 4 1015.0 - 0.0 - - - - - - -
01/02:30am 18.5 WNW 1 4 1015.2 - 0.0 - - - - - - -
01/02:00am 18.3 W 3 6 1015.3 - 0.0 - - - - - - -
01/01:30am 18.3 WSW 4 6 1015.4 - 0.0 - - - - - - -
01/01:00am 18.7 W 2 5 1015.8 - 0.0 - - - - - - -
01/12:30am 18.6 W 3 7 1016.1 - 0.0 - - - - - - -
01/12:00am 18.8 WSW 3 5 1016.2 - 0.0 - - - - - - -
 
Date/Time
EST
Temp

°C
Wind Pressure Rain
since 9am
mm
Weather Cloud Vis
km
Sea
Height
m
Swell
Dir
 
Speed
knots
Gust
knots
hPa Trend Height
m
Period
s
Dir
31/11:30pm 18.9 SW 2 5 1016.4 - 0.0 - - - - - - -
31/11:00pm 19.1 W 3 7 1016.3 - 0.0 - - - - - - -
31/10:30pm 19.4 WSW 6 8 1016.3 - 0.0 - - - - - - -
31/10:00pm 19.7 W 4 8 1016.3 - 0.0 - - - - - - -
31/09:30pm 19.9 WNW 4 7 1016.2 - 0.0 - - - - - - -
31/09:00pm 20.3 WSW 4 7 1016.0 - 0.0 - - - - - - -
31/08:30pm 20.9 WSW 4 6 1015.8 - 0.0 - - - - - - -
31/08:00pm 21.1 CALM 0 0 1015.4 - 0.0 - - - - - - -
31/07:30pm 21.8 CALM 0 0 1015.0 - 0.0 - - - - - - -
31/07:00pm 22.1 CALM 0 0 1014.6 - 0.0 - - - - - - -
31/06:30pm 22.8 E 1 3 1014.2 - 0.0 - - - - - - -
31/06:00pm 23.5 ENE 4 5 1013.9 - 0.0 - - - - - - -
31/05:30pm 24.4 NE 5 8 1013.8 - 0.0 - - - - - - -
31/05:00pm 24.8 NE 6 9 1013.6 - 0.0 - - - - - - -
31/04:30pm 25.4 NE 7 11 1013.4 - 0.0 - - - - - - -
31/04:00pm 25.9 ENE 7 11 1013.4 - 0.0 - - - - - - -
31/03:30pm 26.7 ENE 7 12 1013.4 - 0.0 - - - - - - -
31/03:00pm 26.9 NE 8 12 1013.5 - 0.0 - - - - - - -
31/02:30pm 27.2 ENE 9 13 1013.9 - 0.0 - - - - - - -
31/02:00pm 28.2 E 7 12 1014.1 - 0.0 - - - - - - -
31/01:30pm 28.1 NE 7 10 1014.6 - 0.0 - - - - - - -
31/01:00pm 27.7 ENE 5 8 1015.0 - 0.0 - - - - - - -
31/12:30pm 27.4 E 6 9 1015.4 - 0.0 - - - - - - -
31/12:00pm 27.6 E 5 9 1015.7 - 0.0 - - - - - - -
31/11:30am 27.1 E 3 6 1016.3 - 0.0 - - - - - - -
31/11:00am 27.4 NE 3 7 1016.8 - 0.0 - - - - - - -
31/10:30am 27.0 CALM 0 0 1017.2 - 0.0 - - - - - - -
31/10:00am 25.8 ENE 5 7 1017.4 - 0.0 - - - - - - -
31/09:30am 25.7 NW 1 4 1017.5 - 0.0 - - - - - - -
31/09:00am 24.0 CALM 0 3 1017.2 - 0.0 - - - - - - -
31/08:30am 22.6 WSW 4 6 1017.2 - 0.0 - - - - - - -
31/08:00am 20.9 WSW 3 5 1017.0 - 0.0 - - - - - - -
31/07:30am 19.8 W 1 4 1016.7 - 0.0 - - - - - - -
31/07:00am 18.9 W 1 5 1016.4 - 0.0 - - - - - - -
31/06:30am 18.6 WNW 1 5 1016.1 - 0.0 - - - - - - -
31/06:00am 18.8 WSW 3 6 1015.7 - 0.0 - - - - - - -
31/05:30am 19.2 W 1 3 1015.5 - 0.0 - - - - - - -
31/05:00am 18.7 CALM 0 0 1015.3 - 0.0 - - - - - - -
31/04:30am 19.0 WNW 2 5 1015.1 - 0.0 - - - - - - -
31/04:00am 19.2 WNW 3 4 1015.1 - 0.0 - - - - - - -
31/03:30am 19.2 WNW 1 4 1015.2 - 0.0 - - - - - - -
31/03:00am 19.3 NW 1 4 1015.3 - 0.0 - - - - - - -
31/02:30am 19.1 WSW 5 7 1015.5 - 0.0 - - - - - - -
31/02:00am 19.4 W 3 5 1015.7 - 0.0 - - - - - - -
31/01:30am 19.2 W 1 4 1015.9 - 0.0 - - - - - - -
31/01:00am 19.3 WSW 1 4 1016.0 - 0.0 - - - - - - -
31/12:30am 19.4 WSW 3 6 1016.0 - 0.0 - - - - - - -
31/12:00am 19.8 W 4 5 1016.1 - 0.0 - - - - - - -
 
Date/Time
EST
Temp

°C
Wind Pressure Rain
since 9am
mm
Weather Cloud Vis
km
Sea
Height
m
Swell
Dir
 
Speed
knots
Gust
knots
hPa Trend Height
m
Period
s
Dir
30/11:30pm 20.0 W 4 6 1016.1 - 0.0 - - - - - - -
30/11:00pm 20.2 WSW 3 5 1016.2 - 0.0 - - - - - - -
30/10:30pm 20.5 WSW 5 7 1016.4 - 0.0 - - - - - - -
30/10:00pm 20.9 W 3 5 1016.5 - 0.0 - - - - - - -
30/09:30pm 21.2 W 2 5 1016.4 - 0.0 - - - - - - -
30/09:00pm 21.8 CALM 0 4 1016.2 - 0.0 - - - - - - -
30/08:30pm 22.3 WSW 3 5 1016.0 - 0.0 - - - - - - -
30/08:00pm 22.2 CALM 0 0 1015.7 - 0.0 - - - - - - -
30/07:30pm 22.5 CALM 0 0 1015.4 - 0.0 - - - - - - -
30/07:00pm 22.7 CALM 0 0 1015.0 - 0.0 - - - - - - -
30/06:30pm 23.2 ENE 1 4 1014.6 - 0.0 - - - - - - -
30/06:00pm 23.7 ENE 4 6 1014.2 - 0.0 - - - - - - -
30/05:30pm 24.3 NE 6 8 1014.1 - 0.0 - - - - - - -
30/05:00pm 24.9 ENE 6 9 1013.9 - 0.0 - - - - - - -
30/04:30pm 25.3 NE 7 10 1013.8 - 0.0 - - - - - - -
30/04:00pm 25.6 NE 9 12 1013.6 - 0.0 - - - - - - -
30/03:30pm 26.8 E 6 9 1013.7 - 0.0 - - - - - - -
30/03:00pm 27.0 E 7 11 1013.8 - 0.0 - - - - - - -
30/02:30pm 27.6 ESE 7 10 1014.2 - 0.0 - - - - - - -
30/02:00pm 27.7 ESE 7 13 1014.8 - 0.0 - - - - - - -
30/01:30pm 27.9 ESE 6 9 1015.2 - 0.0 - - - - - - -
30/01:00pm 28.0 ENE 5 9 1015.7 - 0.0 - - - - - - -
30/12:30pm 26.7 ESE 5 9 1016.2 - 0.0 - - - - - - -
30/12:00pm 27.0 E 2 6 1016.8 - 0.0 - - - - - - -
30/11:30am 26.4 CALM 0 0 1017.5 - 0.0 - - - - - - -
30/11:00am 25.8 SW 3 5 1018.0 - 0.0 - - - - - - -
30/10:30am 26.3 W 1 5 1018.5 - 0.0 - - - - - - -
30/10:00am 25.1 SSE 4 5 1018.7 - 0.0 - - - - - - -
30/09:30am 24.8 SW 2 4 1018.7 - 0.0 - - - - - - -
30/09:00am 22.8 CALM 0 0 1018.5 - 0.0 - - - - - - -
30/08:30am 21.6 CALM 0 0 1018.4 - 0.0 - - - - - - -
30/08:00am 20.2 CALM 0 0 1018.1 - 0.0 - - - - - - -
30/07:30am 17.6 CALM 0 2 1017.7 - 0.0 - - - - - - -
30/07:00am 16.9 CALM 0 0 1017.2 - 0.0 - - - - - - -
30/06:30am 17.2 CALM 0 0 1016.8 - 0.0 - - - - - - -
30/06:00am 16.9 CALM 0 0 1016.3 - 0.0 - - - - - - -
30/05:30am 17.0 CALM 0 0 1016.1 - 0.0 - - - - - - -
30/05:00am 17.1 CALM 0 0 1015.8 - 0.0 - - - - - - -
30/04:30am 17.0 W 2 5 1015.7 - 0.0 - - - - - - -
30/04:00am 17.2 W 3 4 1015.6 - 0.0 - - - - - - -
30/03:30am 17.2 W 1 3 1015.8 - 0.0 - - - - - - -
30/03:00am 17.4 W 1 4 1015.8 - 0.0 - - - - - - -
30/02:30am 17.5 WSW 2 5 1016.1 - 0.0 - - - - - - -
30/02:00am 17.7 CALM 0 3 1016.2 - 0.0 - - - - - - -
30/01:30am 17.7 W 2 4 1016.5 - 0.0 - - - - - - -
30/01:00am 17.7 WNW 3 4 1016.9 - 0.0 - - - - - - -
30/12:30am 17.8 W 4 7 1017.2 - 0.0 - - - - - - -
30/12:00am 17.9 W 3 4 1017.3 - 0.0 - - - - - - -
 
Date/Time
EST
Temp

°C
Wind Pressure Rain
since 9am
mm
Weather Cloud Vis
km
Sea
Height
m
Swell
Dir
 
Speed
knots
Gust
knots
hPa Trend Height
m
Period
s
Dir
29/11:30pm 18.0 W 4 5 1017.5 - 0.0 - - - - - - -
29/11:00pm 18.3 W 4 6 1017.6 - 0.0 - - - - - - -
29/10:30pm 18.4 WNW 4 5 1017.7 - 0.0 - - - - - - -
29/10:00pm 18.8 WNW 3 4 1017.9 - 0.0 - - - - - - -
29/09:30pm 19.0 WNW 4 5 1017.8 - 0.0 - - - - - - -
29/09:00pm 19.5 W 3 4 1017.8 - 0.0 - - - - - - -
29/08:30pm 19.7 W 3 5 1017.9 - 0.0 - - - - - - -
29/08:00pm 20.2 W 3 5 1017.6 - 0.0 - - - - - - -
29/07:30pm 20.8 SSW 2 6 1017.3 - 0.0 - - - - - - -
29/07:00pm 21.5 CALM 0 3 1017.0 - 0.0 - - - - - - -
29/06:30pm 21.8 SE 3 4 1016.8 - 0.0 - - - - - - -

Other Formats:

Comma delimited format used in spreadsheet applications
http://www.bom.gov.au/fwo/IDQ60701/IDQ60701.95292.axf

JavaScript Object Notation format (JSON) in row-major order
http://www.bom.gov.au/fwo/IDQ60701/IDQ60701.95292.json